Time;durP1;ratioP1;P1;durP2;ratioP2;P2;SDS_P1;SDS_P2;PMS_P1;PMS_P2;Temp;Humidity;BMP_temperature;BMP_pressure;BME280_temperature;BME280_humidity;BME280_pressure;Samples;Min_cycle;Max_cycle;Signal;HPM_P1;HPM_P2
2023/08/25 00:02:15;;;;;;;7.60;4.40;;;;;;;17.81;69.01;100523.02;107787;1253;61661;-76
2023/08/25 00:04:43;;;;;;;8.20;4.30;;;;;;;17.77;68.95;100514.57;108168;1253;60353;-77
2023/08/25 00:07:10;;;;;;;7.30;4.60;;;;;;;17.78;68.91;100514.35;108059;1258;73925;-77
2023/08/25 00:09:38;;;;;;;7.70;5.00;;;;;;;17.78;68.90;100514.66;108134;1256;75063;-75
2023/08/25 00:12:06;;;;;;;8.30;5.10;;;;;;;17.78;68.91;100513.59;108151;1252;72787;-76
2023/08/25 00:14:33;;;;;;;6.40;4.80;;;;;;;17.79;68.97;100515.17;108065;1253;61569;-76
2023/08/25 00:17:03;;;;;;;7.70;4.80;;;;;;;17.79;68.94;100511.23;108084;1252;60381;-77
2023/08/25 00:19:30;;;;;;;8.00;5.10;;;;;;;17.77;68.84;100507.33;108130;1253;72646;-76
2023/08/25 00:21:59;;;;;;;8.80;5.60;;;;;;;17.73;68.67;100508.86;108110;1253;72886;-75
2023/08/25 00:24:26;;;;;;;7.80;5.40;;;;;;;17.71;68.65;100509.73;108129;1253;73676;-75
2023/08/25 00:26:54;;;;;;;8.90;5.60;;;;;;;17.68;68.48;100501.84;108037;1253;60414;-75
2023/08/25 00:29:22;;;;;;;7.30;5.40;;;;;;;17.68;68.66;100497.59;108082;1253;61150;-76
2023/08/25 00:31:49;;;;;;;7.30;5.20;;;;;;;17.67;68.39;100494.79;108084;1253;73016;-74
2023/08/25 00:34:17;;;;;;;8.50;5.20;;;;;;;17.67;68.36;100488.24;108088;1253;73629;-74
2023/08/25 00:36:45;;;;;;;8.50;5.70;;;;;;;17.64;68.19;100484.59;108088;1253;71428;-75
2023/08/25 00:39:12;;;;;;;8.90;6.60;;;;;;;17.60;68.17;100487.98;108157;1253;61700;-75
2023/08/25 00:41:40;;;;;;;8.10;5.40;;;;;;;17.57;68.04;100486.27;108057;1253;60556;-74
2023/08/25 00:44:08;;;;;;;9.00;5.10;;;;;;;17.50;68.04;100485.34;108141;1253;72668;-75
2023/08/25 00:46:36;;;;;;;7.70;5.10;;;;;;;17.42;68.20;100478.95;108113;1253;71778;-75
2023/08/25 00:49:06;;;;;;;9.60;5.30;;;;;;;17.40;68.25;100469.20;108093;1253;71536;-74
2023/08/25 00:51:34;;;;;;;6.90;5.20;;;;;;;17.41;68.24;100468.71;108126;1256;60600;-75
2023/08/25 00:54:03;;;;;;;8.40;5.20;;;;;;;17.42;68.17;100464.59;108156;1253;60146;-76
2023/08/25 00:56:31;;;;;;;6.70;5.10;;;;;;;17.42;68.14;100459.06;108150;1253;72851;-75
2023/08/25 00:58:59;;;;;;;7.70;5.10;;;;;;;17.41;68.18;100460.45;107941;1258;73999;-74
2023/08/25 01:01:27;;;;;;;8.50;5.00;;;;;;;17.41;68.10;100464.06;108004;1253;72962;-74
2023/08/25 01:03:56;;;;;;;6.00;4.80;;;;;;;17.42;68.22;100460.96;108165;1254;60422;-75
2023/08/25 01:06:24;;;;;;;9.00;5.00;;;;;;;17.43;68.04;100460.27;108049;1253;60336;-77
2023/08/25 01:08:51;;;;;;;6.90;4.80;;;;;;;17.42;68.10;100455.88;108122;1257;73912;-75
2023/08/25 01:11:28;;;;;;;6.40;4.80;;;;;;;17.40;68.07;100455.13;108047;1252;73778;-76
2023/08/25 01:14:35;;;;;;;8.30;4.90;;;;;;;17.36;68.18;100458.48;108087;1253;71629;-75
2023/08/25 01:17:11;;;;;;;7.80;4.70;;;;;;;17.33;68.19;100450.14;108094;1256;61767;-75
2023/08/25 01:20:00;;;;;;;6.10;4.20;;;;;;;17.30;68.19;100449.52;108101;1253;60983;-76
2023/08/25 01:22:36;;;;;;;5.90;4.00;;;;;;;17.26;68.23;100453.45;108014;1253;74262;-74
2023/08/25 01:25:30;;;;;;;5.90;4.00;;;;;;;17.14;68.35;100462.02;108003;1253;72950;-75
2023/08/25 01:28:00;;;;;;;5.70;3.60;;;;;;;17.08;68.57;100462.02;108036;1253;71918;-75
2023/08/25 01:30:31;;;;;;;6.60;3.90;;;;;;;17.08;68.68;100463.86;108158;1252;60492;-75
2023/08/25 01:32:59;;;;;;;6.20;4.10;;;;;;;17.06;68.70;100466.88;108134;1253;62335;-76
2023/08/25 01:35:35;;;;;;;5.20;3.70;;;;;;;17.01;68.88;100467.47;108001;1253;73899;-74
2023/08/25 01:38:11;;;;;;;5.30;4.10;;;;;;;16.98;69.02;100468.93;107943;1253;72937;-74
2023/08/25 01:40:44;;;;;;;5.60;4.00;;;;;;;16.98;69.08;100470.07;107984;1253;72051;-75
2023/08/25 01:43:16;;;;;;;5.20;3.70;;;;;;;17.00;69.14;100470.29;108071;1252;60950;-75
2023/08/25 01:45:44;;;;;;;5.40;3.60;;;;;;;17.02;69.09;100469.46;108094;1253;60325;-76
2023/08/25 01:48:12;;;;;;;6.00;3.90;;;;;;;17.02;69.09;100467.17;108029;1252;72342;-76
2023/08/25 01:50:40;;;;;;;5.90;3.60;;;;;;;17.02;69.04;100465.23;108006;1257;73682;-75
2023/08/25 01:53:09;;;;;;;5.70;3.60;;;;;;;17.00;69.13;100467.39;107909;1253;72649;-75
2023/08/25 01:55:36;;;;;;;4.70;3.60;;;;;;;16.95;69.11;100470.77;107946;1253;61683;-75
2023/08/25 01:58:04;;;;;;;7.20;3.90;;;;;;;16.91;69.24;100468.64;107734;1253;60302;-76
2023/08/25 02:00:32;;;;;;;5.40;3.60;;;;;;;16.89;69.35;100471.54;108060;1252;72718;-76
2023/08/25 02:02:59;;;;;;;6.50;3.90;;;;;;;16.85;69.31;100464.89;107981;1253;71729;-75
2023/08/25 02:05:28;;;;;;;5.90;4.30;;;;;;;16.79;69.53;100467.48;108063;1257;73115;-75
2023/08/25 02:07:55;;;;;;;7.30;4.50;;;;;;;16.78;69.72;100471.02;108043;1255;61771;-75
2023/08/25 02:10:24;;;;;;;7.70;4.70;;;;;;;16.74;69.86;100474.90;107937;1258;60283;-75
2023/08/25 02:12:52;;;;;;;7.90;4.70;;;;;;;16.73;70.07;100474.97;107975;1253;75212;-75
2023/08/25 02:15:20;;;;;;;6.40;4.70;;;;;;;16.74;70.14;100474.52;108050;1253;73610;-76
2023/08/25 02:17:47;;;;;;;6.80;4.90;;;;;;;16.77;70.28;100476.21;108099;1253;72694;-76
2023/08/25 02:20:15;;;;;;;6.60;4.50;;;;;;;16.78;70.34;100473.77;108024;1253;61766;-77
2023/08/25 02:22:43;;;;;;;7.60;4.70;;;;;;;16.80;70.36;100475.88;108065;1253;60321;-76
2023/08/25 02:25:10;;;;;;;6.50;4.80;;;;;;;16.83;70.36;100471.50;107999;1258;74303;-76
2023/08/25 02:27:40;;;;;;;6.30;4.80;;;;;;;16.86;70.33;100474.90;108017;1253;74267;-75
2023/08/25 02:30:09;;;;;;;6.50;4.60;;;;;;;16.84;70.32;100478.05;107905;1253;73616;-74
2023/08/25 02:32:38;;;;;;;8.50;4.80;;;;;;;16.81;70.39;100479.27;108039;1260;61884;-76
2023/08/25 02:35:06;;;;;;;7.50;4.80;;;;;;;16.82;70.43;100477.02;107988;1253;60447;-74
2023/08/25 02:37:35;;;;;;;6.30;4.60;;;;;;;16.84;70.39;100473.33;108003;1253;74038;-74
2023/08/25 02:40:05;;;;;;;7.30;4.90;;;;;;;16.86;70.47;100471.83;108085;1253;74908;-74
2023/08/25 02:42:33;;;;;;;6.10;4.70;;;;;;;16.87;70.39;100471.54;107789;1253;71647;-75
2023/08/25 02:45:02;;;;;;;6.90;4.90;;;;;;;16.86;70.31;100472.67;108100;1253;61170;-74
2023/08/25 02:47:32;;;;;;;7.40;4.60;;;;;;;16.87;70.28;100475.57;108144;1254;60313;-75
2023/08/25 02:49:59;;;;;;;5.80;4.30;;;;;;;16.86;70.18;100472.41;108084;1253;75873;-77
2023/08/25 02:52:27;;;;;;;6.30;4.70;;;;;;;16.81;70.09;100474.90;108133;1253;72998;-76
2023/08/25 02:54:55;;;;;;;5.80;4.70;;;;;;;16.76;70.20;100475.58;108113;1253;71413;-75
2023/08/25 02:57:22;;;;;;;6.10;4.50;;;;;;;16.73;70.13;100482.15;108084;1255;60451;-76
2023/08/25 02:59:50;;;;;;;9.60;4.90;;;;;;;16.71;70.22;100482.29;108135;1253;60300;-75
2023/08/25 03:02:17;;;;;;;7.00;4.40;;;;;;;16.71;70.02;100481.38;107953;1254;73008;-75
2023/08/25 03:04:45;;;;;;;6.80;4.70;;;;;;;16.70;70.05;100481.70;108119;1253;72417;-76
2023/08/25 03:07:13;;;;;;;6.70;4.60;;;;;;;16.70;69.98;100486.63;108050;1253;72822;-76
2023/08/25 03:09:40;;;;;;;5.70;4.30;;;;;;;16.70;69.98;100485.22;108085;1252;61689;-76
2023/08/25 03:12:08;;;;;;;7.20;4.90;;;;;;;16.71;70.04;100481.48;108112;1253;60475;-75
2023/08/25 03:14:36;;;;;;;7.10;4.40;;;;;;;16.72;70.05;100484.42;107997;1253;73045;-76
2023/08/25 03:17:03;;;;;;;6.20;4.10;;;;;;;16.73;69.97;100493.73;108117;1253;72301;-76
2023/08/25 03:19:31;;;;;;;6.90;3.90;;;;;;;16.74;70.03;100493.29;108280;1253;71826;-74
2023/08/25 03:21:59;;;;;;;6.60;3.90;;;;;;;16.76;69.99;100494.54;108017;1259;60506;-74
2023/08/25 03:24:31;;;;;;;5.80;3.70;;;;;;;16.76;70.00;100498.78;108134;1253;60286;-76
2023/08/25 03:26:59;;;;;;;6.70;3.90;;;;;;;16.78;70.12;100503.44;108050;1253;73855;-76
2023/08/25 03:29:27;;;;;;;6.80;4.30;;;;;;;16.81;70.10;100501.85;107877;1253;72747;-76
2023/08/25 03:31:55;;;;;;;5.30;3.80;;;;;;;16.86;70.28;100501.97;108103;1256;71693;-75
2023/08/25 03:34:23;;;;;;;6.00;3.80;;;;;;;16.91;70.37;100500.31;108095;1254;60816;-75
2023/08/25 03:36:50;;;;;;;5.90;3.70;;;;;;;16.95;70.33;100503.63;107894;1253;60444;-76
2023/08/25 03:39:18;;;;;;;5.70;3.60;;;;;;;16.99;70.39;100507.83;108143;1252;73113;-76
2023/08/25 03:41:46;;;;;;;5.00;3.40;;;;;;;17.00;70.34;100515.42;108102;1253;74719;-76
2023/08/25 03:44:15;;;;;;;5.60;3.40;;;;;;;16.98;70.32;100518.20;108105;1253;72415;-76
2023/08/25 03:46:43;;;;;;;4.90;3.60;;;;;;;16.97;70.36;100521.35;108014;1253;60531;-76
2023/08/25 03:49:10;;;;;;;4.30;3.80;;;;;;;16.97;70.43;100527.39;108133;1253;60415;-74
2023/08/25 03:51:38;;;;;;;4.70;3.60;;;;;;;16.97;70.49;100521.52;108155;1253;74042;-76
2023/08/25 03:54:06;;;;;;;6.10;4.10;;;;;;;17.00;70.64;100523.30;108072;1253;72705;-75
2023/08/25 03:56:33;;;;;;;5.50;3.80;;;;;;;17.06;70.76;100526.06;107991;1255;72826;-75
2023/08/25 03:59:01;;;;;;;5.90;4.40;;;;;;;17.17;70.66;100529.31;108026;1253;60653;-75
2023/08/25 04:01:29;;;;;;;6.70;4.00;;;;;;;17.26;70.54;100536.32;108064;1253;60119;-75
2023/08/25 04:03:57;;;;;;;6.50;3.90;;;;;;;17.34;70.44;100539.15;108118;1252;74136;-75
2023/08/25 04:06:26;;;;;;;6.40;4.00;;;;;;;17.41;70.45;100536.86;108094;1253;71686;-74
2023/08/25 04:08:54;;;;;;;6.20;4.30;;;;;;;17.48;70.38;100540.20;108021;1253;72455;-75
2023/08/25 04:11:21;;;;;;;6.30;4.20;;;;;;;17.56;70.26;100539.59;108095;1253;60919;-76
2023/08/25 04:13:49;;;;;;;5.30;4.00;;;;;;;17.68;70.25;100545.05;107994;1252;60324;-74
2023/08/25 04:16:17;;;;;;;6.90;4.10;;;;;;;17.79;70.10;100551.98;108028;1253;73970;-76
2023/08/25 04:18:45;;;;;;;7.10;4.30;;;;;;;17.91;70.03;100553.86;108068;1253;70658;-76
2023/08/25 04:21:14;;;;;;;7.50;4.10;;;;;;;18.09;69.89;100552.09;108043;1255;71733;-76
2023/08/25 04:23:42;;;;;;;6.80;4.30;;;;;;;18.23;69.96;100557.63;108047;1253;60665;-74
2023/08/25 04:26:10;;;;;;;7.80;4.40;;;;;;;18.38;69.82;100556.06;108036;1253;60935;-76
2023/08/25 04:28:37;;;;;;;7.10;4.60;;;;;;;18.53;69.56;100557.48;107974;1253;73950;-76
2023/08/25 04:31:05;;;;;;;7.50;4.70;;;;;;;18.68;69.51;100555.62;107998;1253;71698;-75
2023/08/25 04:33:37;;;;;;;;;;;;;;;18.84;68.78;100559.19;108044;1257;72770;-76
2023/08/25 04:36:12;;;;;;;8.60;4.90;;;;;;;18.99;67.99;100560.23;108099;1253;60322;-77
2023/08/25 04:38:39;;;;;;;8.30;4.70;;;;;;;19.13;67.23;100555.02;108007;1260;62339;-76
2023/08/25 04:41:09;;;;;;;8.40;4.50;;;;;;;19.25;66.19;100549.27;107990;1253;73258;-75
2023/08/25 04:43:38;;;;;;;6.50;4.80;;;;;;;19.36;65.62;100549.38;108043;1253;72852;-76
2023/08/25 04:46:07;;;;;;;7.20;4.70;;;;;;;19.47;65.26;100551.57;108183;1253;72973;-77
2023/08/25 04:48:35;;;;;;;8.00;4.80;;;;;;;19.59;64.89;100552.50;108119;1253;61932;-76
2023/08/25 04:51:08;;;;;;;7.70;4.70;;;;;;;19.70;64.14;100555.70;107849;1253;60579;-76
2023/08/25 04:53:36;;;;;;;8.10;5.40;;;;;;;19.81;63.71;100556.42;108063;1253;73831;-76
2023/08/25 04:56:04;;;;;;;7.80;4.80;;;;;;;19.95;63.59;100556.62;108018;1253;73006;-76
2023/08/25 04:58:32;;;;;;;6.20;4.60;;;;;;;20.07;63.30;100549.66;108117;1253;71505;-74
2023/08/25 05:00:59;;;;;;;9.60;4.60;;;;;;;20.19;62.90;100549.16;107921;1253;62749;-77
2023/08/25 05:03:27;;;;;;;8.00;4.90;;;;;;;20.29;61.97;100546.75;108034;1253;59939;-76
2023/08/25 05:05:55;;;;;;;6.30;4.60;;;;;;;20.40;61.51;100546.13;108040;1253;74041;-76
2023/08/25 05:08:24;;;;;;;8.60;4.60;;;;;;;20.53;61.21;100548.09;108057;1253;71694;-74
2023/08/25 05:10:53;;;;;;;6.30;4.40;;;;;;;20.68;60.44;100546.98;108057;1256;71782;-76
2023/08/25 05:13:21;;;;;;;6.80;4.70;;;;;;;20.79;59.56;100545.35;108065;1253;60312;-79
2023/08/25 05:15:49;;;;;;;7.60;4.60;;;;;;;20.91;58.97;100542.27;108063;1253;60420;-76
2023/08/25 05:18:29;;;;;;;7.70;4.60;;;;;;;21.08;58.61;100542.78;107833;1254;75354;-77
2023/08/25 05:21:01;;;;;;;10.60;4.60;;;;;;;21.23;58.18;100539.63;107915;1254;72170;-76
2023/08/25 05:23:30;;;;;;;7.70;4.60;;;;;;;21.37;57.22;100533.99;108054;1253;74934;-76
2023/08/25 05:25:57;;;;;;;7.00;4.70;;;;;;;21.50;56.72;100533.54;108046;1256;60427;-76
2023/08/25 05:28:25;;;;;;;7.10;4.50;;;;;;;21.61;56.03;100533.73;107966;1253;60927;-76
2023/08/25 05:30:55;;;;;;;7.00;4.40;;;;;;;21.70;55.40;100529.73;108072;1259;76175;-76
2023/08/25 05:33:39;;;;;;;7.00;4.20;;;;;;;21.83;55.20;100531.48;108044;1253;72058;-78
2023/08/25 05:36:27;;;;;;;8.70;4.70;;;;;;;21.92;54.19;100529.73;108053;1255;72595;-75
2023/08/25 05:38:55;;;;;;;7.20;4.70;;;;;;;21.98;54.15;100531.61;107968;1253;60321;-74
2023/08/25 05:41:23;;;;;;;6.40;4.40;;;;;;;22.06;54.07;100532.27;108060;1252;61012;-77
2023/08/25 05:43:50;;;;;;;8.60;4.10;;;;;;;22.13;53.59;100534.05;108125;1253;73901;-76
2023/08/25 05:46:18;;;;;;;7.00;4.20;;;;;;;22.21;53.28;100532.11;108000;1253;72029;-76
2023/08/25 05:48:46;;;;;;;6.80;4.50;;;;;;;22.30;53.22;100531.60;107955;1253;71511;-76
2023/08/25 05:51:14;;;;;;;8.60;4.40;;;;;;;22.39;53.16;100527.19;107964;1253;60838;-76
2023/08/25 05:53:42;;;;;;;7.30;4.00;;;;;;;22.50;53.01;100527.64;108010;1253;61467;-76
2023/08/25 05:56:10;;;;;;;8.20;4.30;;;;;;;22.59;52.60;100523.20;108024;1253;73987;-77
2023/08/25 05:58:37;;;;;;;6.50;4.30;;;;;;;22.69;52.20;100520.81;107989;1253;72770;-76
2023/08/25 06:01:05;;;;;;;6.60;3.80;;;;;;;22.80;51.59;100524.11;108018;1253;71150;-76
2023/08/25 06:03:33;;;;;;;8.40;3.90;;;;;;;22.88;51.45;100525.61;108005;1254;61200;-75
2023/08/25 06:06:01;;;;;;;7.40;3.80;;;;;;;22.98;51.58;100525.02;107923;1254;60342;-77
2023/08/25 06:08:30;;;;;;;7.30;3.90;;;;;;;23.06;50.81;100523.02;108109;1253;74790;-76
2023/08/25 06:10:57;;;;;;;7.90;4.10;;;;;;;23.15;50.82;100528.50;108234;1253;72843;-77
2023/08/25 06:13:27;;;;;;;6.80;3.90;;;;;;;23.24;50.42;100522.86;108088;1254;72926;-76
2023/08/25 06:15:55;;;;;;;8.50;4.10;;;;;;;23.33;50.80;100521.89;108037;1255;59817;-75
2023/08/25 06:18:22;;;;;;;9.90;4.70;;;;;;;23.46;50.74;100514.95;108113;1253;60583;-75
2023/08/25 06:20:52;;;;;;;7.30;4.10;;;;;;;23.59;50.22;100514.87;108063;1254;73985;-77
2023/08/25 06:23:20;;;;;;;7.70;3.70;;;;;;;23.73;49.53;100515.52;108016;1258;71612;-77
2023/08/25 06:25:49;;;;;;;6.90;3.60;;;;;;;23.82;48.96;100514.42;107996;1254;74791;-76
2023/08/25 06:28:16;;;;;;;6.10;3.70;;;;;;;23.89;48.88;100513.46;107981;1254;61063;-76
2023/08/25 06:30:48;;;;;;;6.30;3.70;;;;;;;23.97;49.00;100514.61;108056;1255;59615;-76
2023/08/25 06:33:18;;;;;;;6.60;3.80;;;;;;;24.05;48.16;100518.80;107974;1253;72773;-77
2023/08/25 06:35:46;;;;;;;6.60;3.70;;;;;;;24.12;48.24;100516.20;108054;1253;76049;-76
2023/08/25 06:38:14;;;;;;;7.70;3.70;;;;;;;24.22;48.22;100522.85;108027;1257;72804;-77
2023/08/25 06:40:43;;;;;;;7.00;3.40;;;;;;;24.33;47.90;100524.45;107981;1254;61728;-75
2023/08/25 06:43:11;;;;;;;6.70;3.80;;;;;;;24.40;47.84;100518.49;108012;1253;60511;-76
2023/08/25 06:45:39;;;;;;;8.00;4.10;;;;;;;24.49;48.02;100518.66;107983;1253;74401;-75
2023/08/25 06:48:06;;;;;;;6.90;4.00;;;;;;;24.56;47.39;100517.73;107919;1258;70846;-76
2023/08/25 06:50:34;;;;;;;6.50;3.30;;;;;;;24.61;47.39;100511.92;107937;1254;72674;-75
2023/08/25 06:53:04;;;;;;;7.10;3.30;;;;;;;24.68;47.41;100512.23;107958;1254;62216;-75
2023/08/25 06:55:36;;;;;;;7.00;3.80;;;;;;;24.78;47.14;100512.64;107949;1253;60567;-77
2023/08/25 06:58:05;;;;;;;;;;;;;;;24.87;46.73;100515.36;107931;1258;73972;-76
2023/08/25 07:00:34;;;;;;;7.60;3.50;;;;;;;24.99;46.63;100513.29;108015;1254;71591;-76
2023/08/25 07:03:03;;;;;;;8.00;3.50;;;;;;;25.11;46.69;100516.23;107703;1254;71455;-75
2023/08/25 07:05:31;;;;;;;7.90;3.70;;;;;;;25.26;45.83;100519.77;108011;1253;60428;-76
2023/08/25 07:07:58;;;;;;;6.50;3.60;;;;;;;25.38;45.60;100518.09;107860;1253;61261;-77
2023/08/25 07:10:26;;;;;;;7.20;3.60;;;;;;;25.51;44.60;100520.63;107848;1253;72561;-76
2023/08/25 07:12:54;;;;;;;7.30;3.70;;;;;;;25.60;43.86;100520.40;107897;1253;71667;-78
2023/08/25 07:15:22;;;;;;;7.30;3.40;;;;;;;25.65;43.92;100517.23;107735;1254;74720;-78
2023/08/25 07:17:49;;;;;;;6.90;3.20;;;;;;;25.68;43.15;100512.38;107875;1252;60790;-76
2023/08/25 07:20:19;;;;;;;8.40;3.30;;;;;;;25.73;43.29;100507.16;107814;1253;60589;-77
2023/08/25 07:22:48;;;;;;;8.60;3.00;;;;;;;25.83;42.74;100501.20;107825;1254;73283;-77
2023/08/25 07:25:16;;;;;;;6.50;2.60;;;;;;;25.94;41.54;100500.23;107808;1254;72800;-73
2023/08/25 07:27:47;;;;;;;7.50;2.90;;;;;;;26.02;41.01;100499.21;107788;1256;73388;-74
2023/08/25 07:30:15;;;;;;;7.40;2.40;;;;;;;26.12;41.18;100500.64;107835;1255;60194;-73
2023/08/25 07:32:43;;;;;;;8.20;2.60;;;;;;;26.21;41.23;100499.64;107881;1253;60290;-74
2023/08/25 07:35:11;;;;;;;3.70;2.20;;;;;;;26.28;41.39;100493.50;107874;1259;75728;-74
2023/08/25 07:37:41;;;;;;;4.20;2.30;;;;;;;26.31;40.63;100494.88;107894;1251;71602;-74
2023/08/25 07:40:10;;;;;;;5.10;2.60;;;;;;;26.31;40.48;100491.98;107891;1254;71710;-75
2023/08/25 07:42:38;;;;;;;6.80;2.90;;;;;;;26.32;40.04;100497.94;107889;1254;60264;-74
2023/08/25 07:45:06;;;;;;;4.30;2.30;;;;;;;26.35;40.36;100503.86;107775;1253;61887;-74
2023/08/25 07:47:35;;;;;;;4.60;2.40;;;;;;;26.39;39.94;100506.75;107960;1257;73942;-74
2023/08/25 07:50:03;;;;;;;5.60;2.60;;;;;;;26.43;39.46;100508.14;107982;1260;71494;-74
2023/08/25 07:52:31;;;;;;;5.50;2.60;;;;;;;26.48;39.33;100510.52;107915;1257;73579;-74
2023/08/25 07:54:58;;;;;;;4.50;2.40;;;;;;;26.52;38.93;100506.59;107902;1254;60361;-75
2023/08/25 07:57:28;;;;;;;5.10;2.60;;;;;;;26.53;38.94;100505.52;107977;1254;60296;-74
2023/08/25 07:59:58;;;;;;;5.30;2.60;;;;;;;26.52;39.50;100501.91;107912;1259;74533;-75
2023/08/25 08:02:26;;;;;;;4.70;2.50;;;;;;;26.57;39.52;100497.13;107842;1257;72958;-74
2023/08/25 08:04:54;;;;;;;5.10;2.30;;;;;;;26.65;38.56;100495.70;107861;1253;71535;-74
2023/08/25 08:07:21;;;;;;;5.40;2.40;;;;;;;26.69;38.04;100496.61;107859;1259;60693;-74
2023/08/25 08:09:49;;;;;;;4.40;2.50;;;;;;;26.74;38.15;100497.33;107984;1257;60249;-75
2023/08/25 08:12:17;;;;;;;4.70;2.40;;;;;;;26.86;38.34;100496.48;107837;1254;74114;-75
2023/08/25 08:14:44;;;;;;;4.40;2.30;;;;;;;26.98;37.53;100489.06;107925;1253;72873;-74
2023/08/25 08:17:13;;;;;;;7.90;2.80;;;;;;;27.09;37.42;100490.80;107885;1258;73340;-75
2023/08/25 08:19:41;;;;;;;5.30;2.40;;;;;;;27.24;37.49;100493.76;107918;1254;60439;-74
2023/08/25 08:22:08;;;;;;;4.60;2.30;;;;;;;27.36;36.51;100498.61;108071;1257;60541;-75
2023/08/25 08:24:36;;;;;;;5.20;2.30;;;;;;;27.46;36.28;100502.02;108102;1254;73841;-75
2023/08/25 08:27:17;;;;;;;4.20;2.50;;;;;;;27.58;36.18;100505.86;107929;1260;63787;-74
2023/08/25 08:29:46;;;;;;;4.30;2.20;;;;;;;27.74;36.12;100502.92;107888;1253;72480;-75
2023/08/25 08:32:13;;;;;;;5.40;2.40;;;;;;;27.86;35.17;100501.50;108121;1254;60428;-74
2023/08/25 08:34:41;;;;;;;3.40;2.20;;;;;;;27.90;35.21;100497.79;107903;1259;60425;-74
2023/08/25 08:37:10;;;;;;;6.10;2.60;;;;;;;27.96;35.06;100499.02;107967;1255;72920;-75
2023/08/25 08:39:38;;;;;;;6.50;2.60;;;;;;;27.99;34.90;100497.87;108027;1258;72285;-75
2023/08/25 08:42:07;;;;;;;4.30;2.40;;;;;;;28.03;34.78;100495.97;107910;1255;63804;-76
2023/08/25 08:44:36;;;;;;;4.40;2.20;;;;;;;28.15;34.72;100490.90;107653;1254;60300;-77
2023/08/25 08:47:04;;;;;;;5.50;2.20;;;;;;;28.24;34.73;100490.66;107887;1254;60431;-76
2023/08/25 08:49:32;;;;;;;4.70;2.60;;;;;;;28.28;34.61;100493.77;107945;1254;66879;-73
2023/08/25 08:52:01;;;;;;;5.90;2.40;;;;;;;28.33;33.32;100496.78;107702;1254;74386;-75
2023/08/25 08:54:29;;;;;;;4.40;2.50;;;;;;;28.32;32.64;100497.17;108014;1259;72686;-75
2023/08/25 08:56:57;;;;;;;5.90;2.50;;;;;;;28.27;33.18;100499.71;107683;1259;60457;-75
2023/08/25 08:59:25;;;;;;;6.10;2.40;;;;;;;28.31;33.42;100498.42;107877;1253;60088;-75
2023/08/25 09:01:53;;;;;;;5.70;2.70;;;;;;;28.40;33.78;100497.42;107906;1254;65127;-75
2023/08/25 09:04:20;;;;;;;6.00;2.50;;;;;;;28.47;33.31;100494.51;108001;1254;63228;-76
2023/08/25 09:06:51;;;;;;;4.30;2.30;;;;;;;28.55;33.47;100491.58;107721;1261;62546;-74
2023/08/25 09:09:19;;;;;;;4.80;2.50;;;;;;;28.64;33.26;100483.48;107811;1254;62277;-75
2023/08/25 09:11:47;;;;;;;5.00;2.60;;;;;;;28.71;33.35;100475.21;107971;1254;60418;-75
2023/08/25 09:14:25;;;;;;;;;;;;;;;28.79;33.78;100475.58;108014;1254;73774;-75
2023/08/25 09:16:56;;;;;;;5.60;3.70;;;;;;;28.85;33.43;100477.58;107955;1254;63905;-75
2023/08/25 09:19:24;;;;;;;5.70;2.50;;;;;;;28.89;33.15;100474.23;108000;1254;63902;-75
2023/08/25 09:21:51;;;;;;;3.40;2.30;;;;;;;28.95;32.68;100472.52;107942;1254;60632;-75
2023/08/25 09:24:20;;;;;;;4.30;2.40;;;;;;;28.98;32.84;100469.48;107957;1254;60344;-75
2023/08/25 09:26:48;;;;;;;6.70;2.00;;;;;;;28.99;33.04;100472.89;107921;1254;65237;-75
2023/08/25 09:29:19;;;;;;;4.70;2.30;;;;;;;29.05;33.39;100471.74;107937;1255;63276;-77
2023/08/25 09:31:46;;;;;;;4.50;2.50;;;;;;;29.11;32.61;100472.17;107911;1259;62496;-75
2023/08/25 09:34:14;;;;;;;4.80;2.40;;;;;;;29.09;32.84;100469.56;107951;1254;60454;-76
2023/08/25 09:36:55;;;;;;;3.70;2.30;;;;;;;29.14;33.30;100466.61;107991;1254;60242;-74
2023/08/25 09:39:23;;;;;;;4.90;2.40;;;;;;;29.23;33.23;100468.46;107929;1254;65392;-76
2023/08/25 09:41:50;;;;;;;9.70;3.00;;;;;;;29.28;32.76;100465.66;107852;1254;63881;-75
2023/08/25 09:44:21;;;;;;;5.20;2.50;;;;;;;29.30;32.44;100463.23;107980;1254;65740;-74
2023/08/25 09:46:49;;;;;;;4.60;2.60;;;;;;;29.32;32.57;100460.17;107793;1254;62077;-75
2023/08/25 09:49:18;;;;;;;5.70;2.80;;;;;;;29.36;32.57;100459.86;107876;1254;59445;-75
2023/08/25 09:51:48;;;;;;;4.90;2.60;;;;;;;29.41;32.70;100459.73;107938;1259;65178;-75
2023/08/25 09:54:17;;;;;;;4.20;2.50;;;;;;;29.45;32.80;100462.49;107858;1254;63819;-74
2023/08/25 09:56:46;;;;;;;3.90;2.30;;;;;;;29.51;32.34;100461.58;107972;1255;64830;-74
2023/08/25 09:59:14;;;;;;;3.90;2.40;;;;;;;29.56;31.87;100463.70;107927;1254;60189;-74
2023/08/25 10:01:44;;;;;;;5.00;2.40;;;;;;;29.57;32.22;100457.02;107919;1254;60297;-75
2023/08/25 10:04:13;;;;;;;7.10;2.50;;;;;;;29.58;32.16;100463.48;107964;1254;65489;-75
2023/08/25 10:06:41;;;;;;;4.40;2.80;;;;;;;29.60;32.11;100463.35;107937;1254;62783;-76
2023/08/25 10:09:09;;;;;;;4.60;2.60;;;;;;;29.61;31.86;100457.47;107833;1257;63872;-75
2023/08/25 10:11:41;;;;;;;5.40;2.70;;;;;;;29.57;31.69;100455.39;107833;1254;60387;-75
2023/08/25 10:14:10;;;;;;;3.90;2.60;;;;;;;29.55;32.31;100450.34;108035;1260;60559;-74
2023/08/25 10:16:46;;;;;;;6.20;2.50;;;;;;;29.60;31.87;100443.94;107986;1254;65665;-75
2023/08/25 10:19:15;;;;;;;4.10;2.70;;;;;;;29.73;32.32;100444.91;108079;1252;63871;-75
2023/08/25 10:21:45;;;;;;;4.80;2.60;;;;;;;29.92;32.41;100444.94;107858;1254;63788;-75
2023/08/25 10:24:14;;;;;;;3.90;2.50;;;;;;;30.07;31.72;100447.23;107863;1252;60474;-75
2023/08/25 10:26:44;;;;;;;5.70;2.50;;;;;;;30.13;31.77;100447.02;107789;1253;60331;-75
2023/08/25 10:29:13;;;;;;;4.90;2.80;;;;;;;30.12;31.72;100450.71;108092;1254;64184;-75
2023/08/25 10:31:46;;;;;;;6.30;2.50;;;;;;;30.06;31.79;100453.86;107934;1254;65139;-75
2023/08/25 10:34:33;;;;;;;6.40;2.80;;;;;;;29.90;32.00;100457.06;107905;1253;63549;-75
2023/08/25 10:37:05;;;;;;;5.90;2.70;;;;;;;29.74;32.19;100454.60;107776;1254;294570;-75
2023/08/25 10:39:52;;;;;;;4.00;2.40;;;;;;;29.74;32.61;100449.48;107905;1254;61379;-75
2023/08/25 10:42:23;;;;;;;4.30;2.60;;;;;;;29.74;31.60;100446.64;107844;1252;74106;-75
2023/08/25 10:45:10;;;;;;;3.80;2.30;;;;;;;29.70;31.60;100446.87;107944;1254;63937;-74
2023/08/25 10:47:44;;;;;;;6.50;2.60;;;;;;;29.60;31.56;100445.66;107930;1254;73634;-74
2023/08/25 10:50:13;;;;;;;5.30;2.50;;;;;;;29.49;31.09;100442.07;107899;1254;60244;-74
2023/08/25 10:52:43;;;;;;;3.90;2.40;;;;;;;29.49;31.36;100441.36;107904;1254;60383;-73
2023/08/25 10:55:28;;;;;;;6.70;2.80;;;;;;;29.63;31.87;100438.52;107796;1254;67358;-75
2023/08/25 10:58:03;;;;;;;5.70;2.70;;;;;;;29.73;30.96;100442.55;107801;1260;64852;-75
2023/08/25 11:00:33;;;;;;;8.30;7.20;;;;;;;29.64;31.17;100440.48;107821;1254;62692;-75
2023/08/25 11:03:03;;;;;;;5.90;3.50;;;;;;;29.60;31.35;100440.00;107982;1254;60325;-75
2023/08/25 11:05:38;;;;;;;6.70;2.50;;;;;;;29.66;31.39;100436.87;107982;1254;60380;-75
2023/08/25 11:08:25;;;;;;;4.50;2.60;;;;;;;29.86;31.65;100432.66;107915;1253;63675;-75
2023/08/25 11:11:13;;;;;;;4.50;2.70;;;;;;;30.04;30.62;100432.28;107784;1254;63887;-74
2023/08/25 11:13:42;;;;;;;4.90;2.40;;;;;;;30.09;30.39;100426.23;107925;1255;62518;-75
2023/08/25 11:16:13;;;;;;;4.00;2.40;;;;;;;30.17;30.48;100424.59;107977;1254;60457;-74
2023/08/25 11:18:42;;;;;;;3.70;2.10;;;;;;;30.26;30.61;100421.52;108178;1253;60756;-76
2023/08/25 11:21:09;;;;;;;6.40;2.60;;;;;;;30.35;30.64;100419.31;107849;1254;65131;-75
2023/08/25 11:23:41;;;;;;;4.10;2.50;;;;;;;30.45;30.96;100421.67;107901;1254;65817;-75
2023/08/25 11:26:09;;;;;;;4.70;2.80;;;;;;;30.45;30.29;100425.53;107928;1254;63935;-76
2023/08/25 11:28:37;;;;;;;4.10;2.30;;;;;;;30.40;30.22;100423.72;107869;1253;60352;-75